sensor_id;sensor_type;location;lat;lon;timestamp;P1;durP1;ratioP1;P2;durP2;ratioP2
57233;SDS011;43090;52.604;13.318;2023-06-22T01:51:51;18.77;;;14.00;;
57233;SDS011;43090;52.604;13.318;2023-06-22T01:54:20;18.38;;;12.98;;
57233;SDS011;43090;52.604;13.318;2023-06-22T01:56:47;19.58;;;13.45;;
57233;SDS011;43090;52.604;13.318;2023-06-22T02:01:57;17.77;;;12.77;;
57233;SDS011;43090;52.604;13.318;2023-06-22T02:04:31;17.08;;;12.50;;
57233;SDS011;43090;52.604;13.318;2023-06-22T02:07:02;22.23;;;13.57;;
57233;SDS011;43090;52.604;13.318;2023-06-22T02:09:33;21.05;;;12.45;;
57233;SDS011;43090;52.604;13.318;2023-06-22T02:12:02;18.77;;;12.90;;
57233;SDS011;43090;52.604;13.318;2023-06-22T02:14:31;19.67;;;12.70;;
57233;SDS011;43090;52.604;13.318;2023-06-22T02:16:58;20.65;;;12.25;;
57233;SDS011;43090;52.604;13.318;2023-06-22T02:19:27;18.60;;;12.32;;
57233;SDS011;43090;52.604;13.318;2023-06-22T02:21:53;21.30;;;12.77;;
57233;SDS011;43090;52.604;13.318;2023-06-22T02:24:20;20.27;;;13.23;;
57233;SDS011;43090;52.604;13.318;2023-06-22T02:26:49;23.35;;;12.23;;
57233;SDS011;43090;52.604;13.318;2023-06-22T02:29:16;15.63;;;11.27;;
57233;SDS011;43090;52.604;13.318;2023-06-22T02:31:42;17.45;;;12.60;;
57233;SDS011;43090;52.604;13.318;2023-06-22T02:34:09;19.23;;;10.82;;
57233;SDS011;43090;52.604;13.318;2023-06-22T02:36:35;20.42;;;11.98;;
57233;SDS011;43090;52.604;13.318;2023-06-22T02:39:02;15.00;;;11.90;;
57233;SDS011;43090;52.604;13.318;2023-06-22T02:41:29;17.25;;;11.23;;
57233;SDS011;43090;52.604;13.318;2023-06-22T02:43:56;15.57;;;11.77;;
57233;SDS011;43090;52.604;13.318;2023-06-22T02:46:23;15.38;;;11.32;;
57233;SDS011;43090;52.604;13.318;2023-06-22T02:48:49;18.40;;;11.25;;
57233;SDS011;43090;52.604;13.318;2023-06-22T02:53:42;19.88;;;12.15;;
57233;SDS011;43090;52.604;13.318;2023-06-22T02:56:11;18.52;;;9.48;;
57233;SDS011;43090;52.604;13.318;2023-06-22T02:58:39;26.73;;;10.25;;
57233;SDS011;43090;52.604;13.318;2023-06-22T03:01:05;16.35;;;12.20;;
57233;SDS011;43090;52.604;13.318;2023-06-22T03:03:32;16.02;;;10.85;;
57233;SDS011;43090;52.604;13.318;2023-06-22T03:05:59;15.68;;;10.77;;
57233;SDS011;43090;52.604;13.318;2023-06-22T03:08:27;17.10;;;10.88;;
57233;SDS011;43090;52.604;13.318;2023-06-22T03:10:55;16.15;;;11.88;;
57233;SDS011;43090;52.604;13.318;2023-06-22T03:13:22;16.92;;;11.57;;
57233;SDS011;43090;52.604;13.318;2023-06-22T03:15:50;15.48;;;11.20;;
57233;SDS011;43090;52.604;13.318;2023-06-22T03:18:16;15.50;;;10.95;;
57233;SDS011;43090;52.604;13.318;2023-06-22T03:20:42;16.67;;;11.00;;
57233;SDS011;43090;52.604;13.318;2023-06-22T03:23:09;15.07;;;11.30;;
57233;SDS011;43090;52.604;13.318;2023-06-22T03:25:35;19.65;;;11.43;;
57233;SDS011;43090;52.604;13.318;2023-06-22T03:28:02;21.13;;;11.65;;
57233;SDS011;43090;52.604;13.318;2023-06-22T03:30:29;18.33;;;11.85;;
57233;SDS011;43090;52.604;13.318;2023-06-22T03:32:55;21.13;;;11.02;;
57233;SDS011;43090;52.604;13.318;2023-06-22T03:35:22;14.48;;;11.63;;
57233;SDS011;43090;52.604;13.318;2023-06-22T03:40:15;19.75;;;11.73;;
57233;SDS011;43090;52.604;13.318;2023-06-22T03:42:42;18.40;;;11.55;;
57233;SDS011;43090;52.604;13.318;2023-06-22T03:45:08;18.10;;;11.13;;
57233;SDS011;43090;52.604;13.318;2023-06-22T03:47:35;15.55;;;10.57;;
57233;SDS011;43090;52.604;13.318;2023-06-22T03:52:30;16.45;;;11.77;;
57233;SDS011;43090;52.604;13.318;2023-06-22T03:54:56;19.90;;;11.13;;
57233;SDS011;43090;52.604;13.318;2023-06-22T03:59:50;18.27;;;10.43;;
57233;SDS011;43090;52.604;13.318;2023-06-22T04:02:16;28.10;;;11.25;;
57233;SDS011;43090;52.604;13.318;2023-06-22T04:04:43;19.67;;;12.18;;
57233;SDS011;43090;52.604;13.318;2023-06-22T04:09:36;19.95;;;10.73;;
57233;SDS011;43090;52.604;13.318;2023-06-22T04:12:02;14.95;;;10.27;;
57233;SDS011;43090;52.604;13.318;2023-06-22T04:14:29;26.05;;;11.30;;
57233;SDS011;43090;52.604;13.318;2023-06-22T04:16:57;17.60;;;11.23;;
57233;SDS011;43090;52.604;13.318;2023-06-22T04:19:24;13.98;;;10.52;;
57233;SDS011;43090;52.604;13.318;2023-06-22T04:21:50;16.05;;;11.30;;
57233;SDS011;43090;52.604;13.318;2023-06-22T04:26:43;16.95;;;11.35;;
57233;SDS011;43090;52.604;13.318;2023-06-22T04:29:11;17.92;;;10.70;;
57233;SDS011;43090;52.604;13.318;2023-06-22T04:31:38;20.23;;;10.48;;
57233;SDS011;43090;52.604;13.318;2023-06-22T04:36:36;16.00;;;9.82;;
57233;SDS011;43090;52.604;13.318;2023-06-22T04:39:05;16.05;;;10.80;;
57233;SDS011;43090;52.604;13.318;2023-06-22T04:41:36;16.23;;;10.70;;
57233;SDS011;43090;52.604;13.318;2023-06-22T04:44:10;16.40;;;10.55;;
57233;SDS011;43090;52.604;13.318;2023-06-22T04:46:40;14.50;;;9.93;;
57233;SDS011;43090;52.604;13.318;2023-06-22T04:51:37;16.48;;;10.20;;
57233;SDS011;43090;52.604;13.318;2023-06-22T04:54:05;11.43;;;9.23;;
57233;SDS011;43090;52.604;13.318;2023-06-22T04:56:32;14.13;;;9.68;;
57233;SDS011;43090;52.604;13.318;2023-06-22T04:59:00;12.93;;;9.43;;
57233;SDS011;43090;52.604;13.318;2023-06-22T05:01:27;12.57;;;9.73;;
57233;SDS011;43090;52.604;13.318;2023-06-22T05:03:53;9.88;;;8.10;;
57233;SDS011;43090;52.604;13.318;2023-06-22T05:06:23;16.40;;;8.95;;
57233;SDS011;43090;52.604;13.318;2023-06-22T05:08:53;13.68;;;9.07;;
57233;SDS011;43090;52.604;13.318;2023-06-22T05:11:27;11.80;;;8.00;;
57233;SDS011;43090;52.604;13.318;2023-06-22T05:13:53;14.55;;;8.00;;
57233;SDS011;43090;52.604;13.318;2023-06-22T05:16:21;10.25;;;7.07;;
57233;SDS011;43090;52.604;13.318;2023-06-22T05:18:53;13.85;;;7.53;;
57233;SDS011;43090;52.604;13.318;2023-06-22T05:21:22;10.00;;;7.57;;
57233;SDS011;43090;52.604;13.318;2023-06-22T05:23:50;13.13;;;7.45;;
57233;SDS011;43090;52.604;13.318;2023-06-22T05:26:17;14.50;;;8.40;;
57233;SDS011;43090;52.604;13.318;2023-06-22T05:28:45;15.23;;;6.68;;
57233;SDS011;43090;52.604;13.318;2023-06-22T05:31:13;8.50;;;6.68;;
57233;SDS011;43090;52.604;13.318;2023-06-22T05:33:41;10.70;;;6.55;;
57233;SDS011;43090;52.604;13.318;2023-06-22T05:36:08;12.88;;;6.10;;
57233;SDS011;43090;52.604;13.318;2023-06-22T05:38:35;9.52;;;6.03;;
57233;SDS011;43090;52.604;13.318;2023-06-22T05:41:02;10.93;;;7.00;;
57233;SDS011;43090;52.604;13.318;2023-06-22T05:43:29;12.85;;;5.85;;
57233;SDS011;43090;52.604;13.318;2023-06-22T05:45:56;9.30;;;5.88;;
57233;SDS011;43090;52.604;13.318;2023-06-22T05:48:23;14.27;;;6.13;;
57233;SDS011;43090;52.604;13.318;2023-06-22T05:50:50;10.30;;;6.22;;
57233;SDS011;43090;52.604;13.318;2023-06-22T05:53:17;15.00;;;4.80;;
57233;SDS011;43090;52.604;13.318;2023-06-22T05:55:43;11.50;;;4.93;;
57233;SDS011;43090;52.604;13.318;2023-06-22T05:58:10;12.95;;;5.38;;
57233;SDS011;43090;52.604;13.318;2023-06-22T06:00:36;9.82;;;4.75;;
57233;SDS011;43090;52.604;13.318;2023-06-22T06:05:30;9.05;;;4.90;;
57233;SDS011;43090;52.604;13.318;2023-06-22T06:07:58;10.40;;;4.40;;
57233;SDS011;43090;52.604;13.318;2023-06-22T06:10:25;10.27;;;3.97;;
57233;SDS011;43090;52.604;13.318;2023-06-22T06:12:52;10.45;;;3.78;;
57233;SDS011;43090;52.604;13.318;2023-06-22T06:17:47;4.90;;;2.92;;
57233;SDS011;43090;52.604;13.318;2023-06-22T06:20:19;4.78;;;3.30;;
57233;SDS011;43090;52.604;13.318;2023-06-22T06:22:47;7.82;;;3.90;;
57233;SDS011;43090;52.604;13.318;2023-06-22T06:25:14;6.53;;;3.88;;
57233;SDS011;43090;52.604;13.318;2023-06-22T06:27:46;13.27;;;3.55;;
57233;SDS011;43090;52.604;13.318;2023-06-22T06:30:13;7.45;;;2.65;;
57233;SDS011;43090;52.604;13.318;2023-06-22T06:32:41;9.07;;;3.83;;
57233;SDS011;43090;52.604;13.318;2023-06-22T06:35:09;6.60;;;3.50;;
57233;SDS011;43090;52.604;13.318;2023-06-22T06:37:36;7.88;;;3.45;;
57233;SDS011;43090;52.604;13.318;2023-06-22T06:40:05;7.97;;;3.70;;
57233;SDS011;43090;52.604;13.318;2023-06-22T06:42:41;7.40;;;3.20;;
57233;SDS011;43090;52.604;13.318;2023-06-22T06:47:38;6.53;;;3.45;;
57233;SDS011;43090;52.604;13.318;2023-06-22T06:50:06;7.97;;;3.63;;
57233;SDS011;43090;52.604;13.318;2023-06-22T06:52:33;5.57;;;2.95;;
57233;SDS011;43090;52.604;13.318;2023-06-22T06:55:04;3.58;;;2.63;;
57233;SDS011;43090;52.604;13.318;2023-06-22T06:57:31;8.18;;;4.30;;
57233;SDS011;43090;52.604;13.318;2023-06-22T06:59:58;11.98;;;4.38;;
57233;SDS011;43090;52.604;13.318;2023-06-22T07:04:54;5.38;;;3.38;;
57233;SDS011;43090;52.604;13.318;2023-06-22T07:07:21;5.50;;;3.10;;
57233;SDS011;43090;52.604;13.318;2023-06-22T07:09:48;8.60;;;3.67;;
57233;SDS011;43090;52.604;13.318;2023-06-22T07:12:14;4.25;;;3.33;;
57233;SDS011;43090;52.604;13.318;2023-06-22T07:14:41;5.53;;;3.60;;
57233;SDS011;43090;52.604;13.318;2023-06-22T07:17:08;7.75;;;3.72;;
57233;SDS011;43090;52.604;13.318;2023-06-22T07:19:34;4.90;;;3.40;;
57233;SDS011;43090;52.604;13.318;2023-06-22T07:22:01;8.95;;;4.50;;
57233;SDS011;43090;52.604;13.318;2023-06-22T07:24:27;10.77;;;3.40;;
57233;SDS011;43090;52.604;13.318;2023-06-22T07:29:20;6.97;;;2.95;;
57233;SDS011;43090;52.604;13.318;2023-06-22T07:34:16;6.82;;;2.80;;
57233;SDS011;43090;52.604;13.318;2023-06-22T07:36:43;6.82;;;2.92;;
57233;SDS011;43090;52.604;13.318;2023-06-22T07:39:09;6.10;;;2.80;;
57233;SDS011;43090;52.604;13.318;2023-06-22T07:44:02;3.97;;;2.90;;
57233;SDS011;43090;52.604;13.318;2023-06-22T07:46:29;8.02;;;3.53;;
57233;SDS011;43090;52.604;13.318;2023-06-22T07:48:56;6.97;;;3.47;;
57233;SDS011;43090;52.604;13.318;2023-06-22T07:51:23;6.53;;;2.88;;
57233;SDS011;43090;52.604;13.318;2023-06-22T07:53:50;5.80;;;2.95;;
57233;SDS011;43090;52.604;13.318;2023-06-22T07:58:46;6.38;;;3.13;;
57233;SDS011;43090;52.604;13.318;2023-06-22T08:01:16;7.07;;;3.08;;
57233;SDS011;43090;52.604;13.318;2023-06-22T08:03:43;4.78;;;2.53;;
57233;SDS011;43090;52.604;13.318;2023-06-22T08:08:36;5.82;;;2.70;;
57233;SDS011;43090;52.604;13.318;2023-06-22T08:11:03;6.68;;;2.78;;
57233;SDS011;43090;52.604;13.318;2023-06-22T08:13:29;4.53;;;2.40;;
57233;SDS011;43090;52.604;13.318;2023-06-22T08:15:56;5.65;;;2.92;;
57233;SDS011;43090;52.604;13.318;2023-06-22T08:20:49;2.63;;;2.33;;
57233;SDS011;43090;52.604;13.318;2023-06-22T08:23:16;7.60;;;2.70;;
57233;SDS011;43090;52.604;13.318;2023-06-22T08:25:43;6.85;;;3.25;;
57233;SDS011;43090;52.604;13.318;2023-06-22T08:30:36;3.78;;;2.53;;
57233;SDS011;43090;52.604;13.318;2023-06-22T08:33:03;5.25;;;2.83;;
57233;SDS011;43090;52.604;13.318;2023-06-22T08:35:29;6.90;;;2.95;;
57233;SDS011;43090;52.604;13.318;2023-06-22T08:37:56;6.25;;;2.88;;
57233;SDS011;43090;52.604;13.318;2023-06-22T08:40:24;6.47;;;2.78;;
57233;SDS011;43090;52.604;13.318;2023-06-22T08:45:17;6.57;;;2.90;;
57233;SDS011;43090;52.604;13.318;2023-06-22T08:47:44;8.15;;;2.78;;
57233;SDS011;43090;52.604;13.318;2023-06-22T08:50:11;4.88;;;2.50;;
57233;SDS011;43090;52.604;13.318;2023-06-22T08:52:40;7.93;;;2.40;;
57233;SDS011;43090;52.604;13.318;2023-06-22T08:55:09;4.03;;;2.65;;
57233;SDS011;43090;52.604;13.318;2023-06-22T08:57:36;6.63;;;2.92;;
57233;SDS011;43090;52.604;13.318;2023-06-22T09:00:06;9.63;;;3.15;;
57233;SDS011;43090;52.604;13.318;2023-06-22T09:02:44;5.18;;;2.40;;
57233;SDS011;43090;52.604;13.318;2023-06-22T09:05:12;6.20;;;2.72;;
57233;SDS011;43090;52.604;13.318;2023-06-22T09:07:38;5.13;;;2.58;;
57233;SDS011;43090;52.604;13.318;2023-06-22T09:12:32;5.13;;;2.50;;
57233;SDS011;43090;52.604;13.318;2023-06-22T09:14:59;7.63;;;2.70;;
57233;SDS011;43090;52.604;13.318;2023-06-22T09:17:27;5.65;;;2.60;;
57233;SDS011;43090;52.604;13.318;2023-06-22T09:19:53;4.88;;;2.45;;
57233;SDS011;43090;52.604;13.318;2023-06-22T09:22:20;4.68;;;2.30;;
57233;SDS011;43090;52.604;13.318;2023-06-22T09:24:47;6.78;;;2.47;;
57233;SDS011;43090;52.604;13.318;2023-06-22T09:29:41;4.45;;;2.40;;
57233;SDS011;43090;52.604;13.318;2023-06-22T09:34:34;7.35;;;2.47;;
57233;SDS011;43090;52.604;13.318;2023-06-22T09:39:28;6.25;;;2.72;;
57233;SDS011;43090;52.604;13.318;2023-06-22T09:44:21;5.38;;;2.80;;
57233;SDS011;43090;52.604;13.318;2023-06-22T09:46:48;3.42;;;2.55;;
57233;SDS011;43090;52.604;13.318;2023-06-22T09:49:15;8.52;;;3.42;;
57233;SDS011;43090;52.604;13.318;2023-06-22T09:54:07;5.38;;;2.90;;
57233;SDS011;43090;52.604;13.318;2023-06-22T09:59:01;10.40;;;3.40;;
57233;SDS011;43090;52.604;13.318;2023-06-22T10:01:43;5.18;;;3.10;;
57233;SDS011;43090;52.604;13.318;2023-06-22T10:06:36;4.68;;;3.00;;
57233;SDS011;43090;52.604;13.318;2023-06-22T10:11:29;7.28;;;3.40;;
57233;SDS011;43090;52.604;13.318;2023-06-22T10:13:57;9.57;;;3.67;;
57233;SDS011;43090;52.604;13.318;2023-06-22T10:18:52;6.15;;;2.88;;
57233;SDS011;43090;52.604;13.318;2023-06-22T10:21:19;8.13;;;3.00;;
57233;SDS011;43090;52.604;13.318;2023-06-22T10:23:46;4.35;;;2.47;;
57233;SDS011;43090;52.604;13.318;2023-06-22T10:28:39;9.43;;;3.42;;
57233;SDS011;43090;52.604;13.318;2023-06-22T10:33:32;4.93;;;3.33;;
57233;SDS011;43090;52.604;13.318;2023-06-22T10:38:25;6.00;;;3.70;;
57233;SDS011;43090;52.604;13.318;2023-06-22T10:43:18;5.68;;;3.88;;
57233;SDS011;43090;52.604;13.318;2023-06-22T10:45:46;5.28;;;2.85;;
57233;SDS011;43090;52.604;13.318;2023-06-22T10:50:38;7.03;;;4.38;;
57233;SDS011;43090;52.604;13.318;2023-06-22T10:55:32;4.03;;;3.20;;
57233;SDS011;43090;52.604;13.318;2023-06-22T10:58:18;5.53;;;3.30;;
57233;SDS011;43090;52.604;13.318;2023-06-22T11:00:45;7.05;;;2.83;;
57233;SDS011;43090;52.604;13.318;2023-06-22T11:05:40;6.20;;;3.47;;
57233;SDS011;43090;52.604;13.318;2023-06-22T11:08:08;6.40;;;3.45;;
57233;SDS011;43090;52.604;13.318;2023-06-22T11:13:00;6.55;;;3.47;;
57233;SDS011;43090;52.604;13.318;2023-06-22T11:15:28;4.15;;;3.17;;
57233;SDS011;43090;52.604;13.318;2023-06-22T11:20:22;5.43;;;3.40;;
57233;SDS011;43090;52.604;13.318;2023-06-22T11:25:15;5.47;;;3.08;;
57233;SDS011;43090;52.604;13.318;2023-06-22T11:27:41;7.32;;;3.50;;
57233;SDS011;43090;52.604;13.318;2023-06-22T11:32:35;4.68;;;3.15;;
57233;SDS011;43090;52.604;13.318;2023-06-22T11:35:02;4.13;;;3.28;;
57233;SDS011;43090;52.604;13.318;2023-06-22T11:37:28;3.90;;;3.03;;
57233;SDS011;43090;52.604;13.318;2023-06-22T11:39:56;5.70;;;3.33;;
57233;SDS011;43090;52.604;13.318;2023-06-22T11:42:32;8.30;;;3.30;;
57233;SDS011;43090;52.604;13.318;2023-06-22T11:47:25;5.53;;;3.17;;
57233;SDS011;43090;52.604;13.318;2023-06-22T11:49:51;6.72;;;3.42;;
57233;SDS011;43090;52.604;13.318;2023-06-22T11:52:18;4.90;;;2.92;;
57233;SDS011;43090;52.604;13.318;2023-06-22T11:54:45;7.07;;;3.30;;
57233;SDS011;43090;52.604;13.318;2023-06-22T11:57:12;7.68;;;4.22;;
57233;SDS011;43090;52.604;13.318;2023-06-22T11:59:38;6.57;;;3.88;;
57233;SDS011;43090;52.604;13.318;2023-06-22T12:02:05;3.97;;;2.97;;
57233;SDS011;43090;52.604;13.318;2023-06-22T12:04:33;5.50;;;3.60;;
57233;SDS011;43090;52.604;13.318;2023-06-22T12:09:26;5.20;;;3.28;;
57233;SDS011;43090;52.604;13.318;2023-06-22T12:11:53;7.07;;;3.88;;
57233;SDS011;43090;52.604;13.318;2023-06-22T12:16:46;8.43;;;4.10;;
57233;SDS011;43090;52.604;13.318;2023-06-22T12:21:39;5.47;;;3.67;;
57233;SDS011;43090;52.604;13.318;2023-06-22T12:24:07;4.03;;;3.22;;
57233;SDS011;43090;52.604;13.318;2023-06-22T12:26:33;4.38;;;3.30;;
57233;SDS011;43090;52.604;13.318;2023-06-22T12:31:26;7.50;;;4.05;;
57233;SDS011;43090;52.604;13.318;2023-06-22T12:33:53;5.50;;;3.83;;
57233;SDS011;43090;52.604;13.318;2023-06-22T12:38:46;7.60;;;3.57;;
57233;SDS011;43090;52.604;13.318;2023-06-22T12:41:13;4.32;;;3.40;;
57233;SDS011;43090;52.604;13.318;2023-06-22T12:43:40;5.80;;;4.00;;
57233;SDS011;43090;52.604;13.318;2023-06-22T12:46:07;4.53;;;3.47;;
57233;SDS011;43090;52.604;13.318;2023-06-22T12:51:00;6.53;;;3.67;;
57233;SDS011;43090;52.604;13.318;2023-06-22T12:53:27;6.38;;;3.90;;
57233;SDS011;43090;52.604;13.318;2023-06-22T12:55:53;11.23;;;3.85;;
57233;SDS011;43090;52.604;13.318;2023-06-22T12:58:20;5.78;;;3.75;;
57233;SDS011;43090;52.604;13.318;2023-06-22T13:03:13;7.25;;;3.53;;
57233;SDS011;43090;52.604;13.318;2023-06-22T13:05:40;5.25;;;3.45;;
57233;SDS011;43090;52.604;13.318;2023-06-22T13:08:06;6.30;;;4.20;;
57233;SDS011;43090;52.604;13.318;2023-06-22T13:10:38;5.30;;;4.07;;
57233;SDS011;43090;52.604;13.318;2023-06-22T13:15:31;4.90;;;3.83;;
57233;SDS011;43090;52.604;13.318;2023-06-22T13:17:58;5.43;;;4.25;;
57233;SDS011;43090;52.604;13.318;2023-06-22T13:20:25;6.45;;;4.35;;
57233;SDS011;43090;52.604;13.318;2023-06-22T13:22:51;6.38;;;3.78;;
57233;SDS011;43090;52.604;13.318;2023-06-22T13:25:19;8.82;;;3.97;;
57233;SDS011;43090;52.604;13.318;2023-06-22T13:27:49;7.13;;;3.60;;
57233;SDS011;43090;52.604;13.318;2023-06-22T13:30:18;4.45;;;3.83;;
57233;SDS011;43090;52.604;13.318;2023-06-22T13:32:47;5.53;;;4.20;;
57233;SDS011;43090;52.604;13.318;2023-06-22T13:35:14;5.63;;;3.42;;
57233;SDS011;43090;52.604;13.318;2023-06-22T13:37:40;7.72;;;4.30;;
57233;SDS011;43090;52.604;13.318;2023-06-22T13:40:07;8.20;;;4.13;;
57233;SDS011;43090;52.604;13.318;2023-06-22T13:42:34;6.30;;;4.57;;
57233;SDS011;43090;52.604;13.318;2023-06-22T13:45:01;6.18;;;4.47;;
57233;SDS011;43090;52.604;13.318;2023-06-22T13:47:29;9.25;;;3.97;;
57233;SDS011;43090;52.604;13.318;2023-06-22T13:49:57;7.70;;;4.60;;
57233;SDS011;43090;52.604;13.318;2023-06-22T13:52:24;8.57;;;4.45;;
57233;SDS011;43090;52.604;13.318;2023-06-22T13:54:51;7.40;;;4.50;;
57233;SDS011;43090;52.604;13.318;2023-06-22T13:57:17;7.43;;;4.00;;
57233;SDS011;43090;52.604;13.318;2023-06-22T13:59:44;6.10;;;4.15;;
57233;SDS011;43090;52.604;13.318;2023-06-22T14:04:37;6.90;;;3.95;;
57233;SDS011;43090;52.604;13.318;2023-06-22T14:07:04;4.68;;;3.78;;
57233;SDS011;43090;52.604;13.318;2023-06-22T14:09:31;8.05;;;3.63;;
57233;SDS011;43090;52.604;13.318;2023-06-22T14:14:24;5.93;;;4.15;;
57233;SDS011;43090;52.604;13.318;2023-06-22T14:16:50;5.10;;;3.85;;
57233;SDS011;43090;52.604;13.318;2023-06-22T14:19:17;7.30;;;3.90;;
57233;SDS011;43090;52.604;13.318;2023-06-22T14:21:44;6.40;;;4.25;;
57233;SDS011;43090;52.604;13.318;2023-06-22T14:24:11;7.38;;;4.25;;
57233;SDS011;43090;52.604;13.318;2023-06-22T14:26:37;6.00;;;4.05;;
57233;SDS011;43090;52.604;13.318;2023-06-22T14:29:04;6.93;;;4.30;;
57233;SDS011;43090;52.604;13.318;2023-06-22T14:31:31;7.50;;;4.25;;
57233;SDS011;43090;52.604;13.318;2023-06-22T14:33:58;5.72;;;4.00;;
57233;SDS011;43090;52.604;13.318;2023-06-22T14:36:24;6.35;;;4.13;;
57233;SDS011;43090;52.604;13.318;2023-06-22T14:41:17;9.15;;;4.82;;
57233;SDS011;43090;52.604;13.318;2023-06-22T14:43:44;8.63;;;4.35;;
57233;SDS011;43090;52.604;13.318;2023-06-22T14:46:17;9.38;;;4.70;;
57233;SDS011;43090;52.604;13.318;2023-06-22T14:48:45;6.20;;;4.35;;
57233;SDS011;43090;52.604;13.318;2023-06-22T14:51:11;6.57;;;4.00;;
57233;SDS011;43090;52.604;13.318;2023-06-22T14:53:42;8.82;;;5.38;;
57233;SDS011;43090;52.604;13.318;2023-06-22T14:56:10;4.88;;;4.03;;
57233;SDS011;43090;52.604;13.318;2023-06-22T14:58:37;7.88;;;4.38;;
57233;SDS011;43090;52.604;13.318;2023-06-22T15:01:04;5.90;;;4.35;;
57233;SDS011;43090;52.604;13.318;2023-06-22T15:03:34;8.10;;;4.07;;
57233;SDS011;43090;52.604;13.318;2023-06-22T15:06:02;8.82;;;4.28;;
57233;SDS011;43090;52.604;13.318;2023-06-22T15:08:29;6.15;;;4.70;;
57233;SDS011;43090;52.604;13.318;2023-06-22T15:10:59;11.43;;;4.65;;
57233;SDS011;43090;52.604;13.318;2023-06-22T15:13:30;8.43;;;4.38;;
57233;SDS011;43090;52.604;13.318;2023-06-22T15:16:00;5.38;;;4.05;;
57233;SDS011;43090;52.604;13.318;2023-06-22T15:18:29;7.15;;;4.20;;
57233;SDS011;43090;52.604;13.318;2023-06-22T15:20:55;10.85;;;4.30;;
57233;SDS011;43090;52.604;13.318;2023-06-22T15:23:22;5.88;;;4.28;;
57233;SDS011;43090;52.604;13.318;2023-06-22T15:25:49;8.48;;;4.53;;
57233;SDS011;43090;52.604;13.318;2023-06-22T15:28:15;8.32;;;4.97;;
57233;SDS011;43090;52.604;13.318;2023-06-22T15:33:08;8.73;;;4.30;;
57233;SDS011;43090;52.604;13.318;2023-06-22T15:35:35;5.10;;;3.97;;
57233;SDS011;43090;52.604;13.318;2023-06-22T15:38:01;5.30;;;4.05;;
57233;SDS011;43090;52.604;13.318;2023-06-22T15:40:28;6.35;;;4.60;;
57233;SDS011;43090;52.604;13.318;2023-06-22T15:42:55;8.63;;;4.85;;
57233;SDS011;43090;52.604;13.318;2023-06-22T15:45:22;9.35;;;4.63;;
57233;SDS011;43090;52.604;13.318;2023-06-22T15:50:15;6.85;;;3.92;;
57233;SDS011;43090;52.604;13.318;2023-06-22T15:52:41;9.52;;;4.50;;
57233;SDS011;43090;52.604;13.318;2023-06-22T15:55:08;14.18;;;4.40;;
57233;SDS011;43090;52.604;13.318;2023-06-22T15:57:35;6.15;;;4.10;;
57233;SDS011;43090;52.604;13.318;2023-06-22T16:00:02;6.80;;;4.13;;
57233;SDS011;43090;52.604;13.318;2023-06-22T16:02:31;7.75;;;4.53;;
57233;SDS011;43090;52.604;13.318;2023-06-22T16:04:57;12.73;;;5.30;;
57233;SDS011;43090;52.604;13.318;2023-06-22T16:07:25;15.35;;;4.40;;
57233;SDS011;43090;52.604;13.318;2023-06-22T16:09:53;8.15;;;4.47;;
